sensor_id;sensor_type;location;lat;lon;timestamp;P1;durP1;ratioP1;P2;durP2;ratioP2
15858;SDS011;8029;52.202;7.308;2022-07-21T00:01:30;8.00;;;4.32;;
15858;SDS011;8029;52.202;7.308;2022-07-21T00:03:56;4.03;;;3.60;;
15858;SDS011;8029;52.202;7.308;2022-07-21T00:06:22;4.85;;;3.63;;
15858;SDS011;8029;52.202;7.308;2022-07-21T00:08:48;5.90;;;3.58;;
15858;SDS011;8029;52.202;7.308;2022-07-21T00:11:14;21.45;;;3.60;;
15858;SDS011;8029;52.202;7.308;2022-07-21T00:13:41;5.15;;;3.25;;
15858;SDS011;8029;52.202;7.308;2022-07-21T00:16:07;4.07;;;3.22;;
15858;SDS011;8029;52.202;7.308;2022-07-21T00:18:33;4.18;;;3.10;;
15858;SDS011;8029;52.202;7.308;2022-07-21T00:20:59;3.45;;;2.90;;
15858;SDS011;8029;52.202;7.308;2022-07-21T00:23:25;4.07;;;3.58;;
15858;SDS011;8029;52.202;7.308;2022-07-21T00:25:51;4.43;;;3.72;;
15858;SDS011;8029;52.202;7.308;2022-07-21T00:28:17;4.90;;;3.35;;
15858;SDS011;8029;52.202;7.308;2022-07-21T00:30:44;3.45;;;3.08;;
15858;SDS011;8029;52.202;7.308;2022-07-21T00:33:10;3.55;;;3.25;;
15858;SDS011;8029;52.202;7.308;2022-07-21T00:35:36;6.20;;;4.22;;
15858;SDS011;8029;52.202;7.308;2022-07-21T00:38:02;4.50;;;3.70;;
15858;SDS011;8029;52.202;7.308;2022-07-21T00:40:28;5.75;;;4.22;;
15858;SDS011;8029;52.202;7.308;2022-07-21T00:42:55;3.55;;;3.25;;
15858;SDS011;8029;52.202;7.308;2022-07-21T00:45:21;5.82;;;4.15;;
15858;SDS011;8029;52.202;7.308;2022-07-21T00:47:47;2.92;;;2.72;;
15858;SDS011;8029;52.202;7.308;2022-07-21T00:50:16;4.68;;;3.25;;
15858;SDS011;8029;52.202;7.308;2022-07-21T00:52:42;5.50;;;3.50;;
15858;SDS011;8029;52.202;7.308;2022-07-21T00:55:08;7.68;;;4.00;;
15858;SDS011;8029;52.202;7.308;2022-07-21T00:57:36;3.95;;;3.55;;
15858;SDS011;8029;52.202;7.308;2022-07-21T01:00:04;3.72;;;3.38;;
15858;SDS011;8029;52.202;7.308;2022-07-21T01:02:30;4.03;;;3.63;;
15858;SDS011;8029;52.202;7.308;2022-07-21T01:04:58;5.82;;;4.25;;
15858;SDS011;8029;52.202;7.308;2022-07-21T01:07:24;2.95;;;2.75;;
15858;SDS011;8029;52.202;7.308;2022-07-21T01:09:50;5.40;;;3.70;;
15858;SDS011;8029;52.202;7.308;2022-07-21T01:12:16;5.38;;;3.08;;
15858;SDS011;8029;52.202;7.308;2022-07-21T01:14:42;5.60;;;4.15;;
15858;SDS011;8029;52.202;7.308;2022-07-21T01:17:08;3.20;;;2.95;;
15858;SDS011;8029;52.202;7.308;2022-07-21T01:19:34;4.60;;;3.47;;
15858;SDS011;8029;52.202;7.308;2022-07-21T01:22:00;7.65;;;3.92;;
15858;SDS011;8029;52.202;7.308;2022-07-21T01:24:26;4.03;;;3.20;;
15858;SDS011;8029;52.202;7.308;2022-07-21T01:26:53;3.20;;;2.95;;
15858;SDS011;8029;52.202;7.308;2022-07-21T01:29:19;3.38;;;3.10;;
15858;SDS011;8029;52.202;7.308;2022-07-21T01:31:46;4.35;;;3.95;;
15858;SDS011;8029;52.202;7.308;2022-07-21T01:34:13;3.42;;;3.08;;
15858;SDS011;8029;52.202;7.308;2022-07-21T01:36:39;2.92;;;2.65;;
15858;SDS011;8029;52.202;7.308;2022-07-21T01:39:05;2.88;;;2.55;;
15858;SDS011;8029;52.202;7.308;2022-07-21T01:41:50;3.35;;;2.97;;
15858;SDS011;8029;52.202;7.308;2022-07-21T01:44:17;3.90;;;3.10;;
15858;SDS011;8029;52.202;7.308;2022-07-21T01:46:44;3.33;;;2.88;;
15858;SDS011;8029;52.202;7.308;2022-07-21T01:49:11;2.75;;;2.55;;
15858;SDS011;8029;52.202;7.308;2022-07-21T01:51:38;2.90;;;2.60;;
15858;SDS011;8029;52.202;7.308;2022-07-21T01:54:04;2.70;;;2.45;;
15858;SDS011;8029;52.202;7.308;2022-07-21T01:56:32;3.38;;;3.08;;
15858;SDS011;8029;52.202;7.308;2022-07-21T01:58:58;2.75;;;2.53;;
15858;SDS011;8029;52.202;7.308;2022-07-21T02:01:26;3.50;;;2.90;;
15858;SDS011;8029;52.202;7.308;2022-07-21T02:03:54;3.08;;;2.55;;
15858;SDS011;8029;52.202;7.308;2022-07-21T02:06:20;2.80;;;2.10;;
15858;SDS011;8029;52.202;7.308;2022-07-21T02:08:46;4.07;;;3.67;;
15858;SDS011;8029;52.202;7.308;2022-07-21T02:11:12;3.42;;;3.22;;
15858;SDS011;8029;52.202;7.308;2022-07-21T02:13:39;3.45;;;3.05;;
15858;SDS011;8029;52.202;7.308;2022-07-21T02:16:05;3.28;;;3.00;;
15858;SDS011;8029;52.202;7.308;2022-07-21T02:18:31;4.57;;;2.95;;
15858;SDS011;8029;52.202;7.308;2022-07-21T02:20:57;2.67;;;2.47;;
15858;SDS011;8029;52.202;7.308;2022-07-21T02:23:23;3.85;;;3.42;;
15858;SDS011;8029;52.202;7.308;2022-07-21T02:25:50;4.95;;;3.05;;
15858;SDS011;8029;52.202;7.308;2022-07-21T02:28:17;5.55;;;4.40;;
15858;SDS011;8029;52.202;7.308;2022-07-21T02:30:43;4.43;;;4.03;;
15858;SDS011;8029;52.202;7.308;2022-07-21T02:33:09;4.30;;;2.85;;
15858;SDS011;8029;52.202;7.308;2022-07-21T02:35:35;3.55;;;3.25;;
15858;SDS011;8029;52.202;7.308;2022-07-21T02:38:02;12.65;;;4.63;;
15858;SDS011;8029;52.202;7.308;2022-07-21T02:40:28;5.47;;;4.50;;
15858;SDS011;8029;52.202;7.308;2022-07-21T02:42:54;15.23;;;4.47;;
15858;SDS011;8029;52.202;7.308;2022-07-21T02:45:20;4.93;;;3.53;;
15858;SDS011;8029;52.202;7.308;2022-07-21T02:47:53;3.35;;;3.05;;
15858;SDS011;8029;52.202;7.308;2022-07-21T02:50:20;3.70;;;3.40;;
15858;SDS011;8029;52.202;7.308;2022-07-21T02:52:47;3.78;;;3.45;;
15858;SDS011;8029;52.202;7.308;2022-07-21T02:55:13;4.50;;;4.10;;
15858;SDS011;8029;52.202;7.308;2022-07-21T02:57:39;4.82;;;4.32;;
15858;SDS011;8029;52.202;7.308;2022-07-21T03:00:06;5.22;;;4.47;;
15858;SDS011;8029;52.202;7.308;2022-07-21T03:02:33;6.22;;;5.28;;
15858;SDS011;8029;52.202;7.308;2022-07-21T03:04:59;5.57;;;5.07;;
15858;SDS011;8029;52.202;7.308;2022-07-21T03:07:25;4.25;;;3.90;;
15858;SDS011;8029;52.202;7.308;2022-07-21T03:09:51;5.00;;;4.30;;
15858;SDS011;8029;52.202;7.308;2022-07-21T03:12:17;4.70;;;4.20;;
15858;SDS011;8029;52.202;7.308;2022-07-21T03:14:43;5.47;;;4.93;;
15858;SDS011;8029;52.202;7.308;2022-07-21T03:17:10;8.23;;;5.03;;
15858;SDS011;8029;52.202;7.308;2022-07-21T03:19:35;7.80;;;5.85;;
15858;SDS011;8029;52.202;7.308;2022-07-21T03:22:02;8.15;;;5.70;;
15858;SDS011;8029;52.202;7.308;2022-07-21T03:24:28;7.03;;;5.20;;
15858;SDS011;8029;52.202;7.308;2022-07-21T03:26:55;5.20;;;4.35;;
15858;SDS011;8029;52.202;7.308;2022-07-21T03:29:21;6.10;;;5.38;;
15858;SDS011;8029;52.202;7.308;2022-07-21T03:31:47;5.93;;;5.32;;
15858;SDS011;8029;52.202;7.308;2022-07-21T03:34:13;6.10;;;5.03;;
15858;SDS011;8029;52.202;7.308;2022-07-21T03:36:39;4.30;;;3.90;;
15858;SDS011;8029;52.202;7.308;2022-07-21T03:39:05;5.30;;;4.80;;
15858;SDS011;8029;52.202;7.308;2022-07-21T03:41:31;3.85;;;3.42;;
15858;SDS011;8029;52.202;7.308;2022-07-21T03:43:57;4.65;;;4.13;;
15858;SDS011;8029;52.202;7.308;2022-07-21T03:46:24;3.75;;;3.35;;
15858;SDS011;8029;52.202;7.308;2022-07-21T03:48:50;4.72;;;3.58;;
15858;SDS011;8029;52.202;7.308;2022-07-21T03:51:16;3.00;;;2.38;;
15858;SDS011;8029;52.202;7.308;2022-07-21T03:53:42;4.18;;;3.33;;
15858;SDS011;8029;52.202;7.308;2022-07-21T03:56:08;5.07;;;3.38;;
15858;SDS011;8029;52.202;7.308;2022-07-21T03:58:34;3.75;;;3.45;;
15858;SDS011;8029;52.202;7.308;2022-07-21T04:01:00;3.20;;;2.90;;
15858;SDS011;8029;52.202;7.308;2022-07-21T04:03:26;3.97;;;3.08;;
15858;SDS011;8029;52.202;7.308;2022-07-21T04:05:52;3.05;;;2.85;;
15858;SDS011;8029;52.202;7.308;2022-07-21T04:08:18;3.35;;;3.05;;
15858;SDS011;8029;52.202;7.308;2022-07-21T04:10:44;2.80;;;2.55;;
15858;SDS011;8029;52.202;7.308;2022-07-21T04:13:11;3.13;;;2.90;;
15858;SDS011;8029;52.202;7.308;2022-07-21T04:15:38;6.47;;;3.38;;
15858;SDS011;8029;52.202;7.308;2022-07-21T04:18:04;3.58;;;3.25;;
15858;SDS011;8029;52.202;7.308;2022-07-21T04:20:31;3.75;;;3.42;;
15858;SDS011;8029;52.202;7.308;2022-07-21T04:22:57;4.80;;;4.13;;
15858;SDS011;8029;52.202;7.308;2022-07-21T04:25:24;6.00;;;4.97;;
15858;SDS011;8029;52.202;7.308;2022-07-21T04:27:51;4.03;;;3.63;;
15858;SDS011;8029;52.202;7.308;2022-07-21T04:30:18;4.18;;;3.78;;
15858;SDS011;8029;52.202;7.308;2022-07-21T04:32:44;4.03;;;3.60;;
15858;SDS011;8029;52.202;7.308;2022-07-21T04:35:11;6.20;;;4.07;;
15858;SDS011;8029;52.202;7.308;2022-07-21T04:37:37;4.13;;;3.72;;
15858;SDS011;8029;52.202;7.308;2022-07-21T04:40:04;4.43;;;3.92;;
15858;SDS011;8029;52.202;7.308;2022-07-21T04:42:31;4.13;;;3.80;;
15858;SDS011;8029;52.202;7.308;2022-07-21T04:44:57;4.47;;;4.07;;
15858;SDS011;8029;52.202;7.308;2022-07-21T04:47:23;15.38;;;4.65;;
15858;SDS011;8029;52.202;7.308;2022-07-21T04:49:49;4.05;;;3.75;;
15858;SDS011;8029;52.202;7.308;2022-07-21T04:52:15;4.32;;;3.92;;
15858;SDS011;8029;52.202;7.308;2022-07-21T04:54:41;4.57;;;4.18;;
15858;SDS011;8029;52.202;7.308;2022-07-21T04:57:07;4.72;;;4.00;;
15858;SDS011;8029;52.202;7.308;2022-07-21T04:59:33;6.03;;;5.43;;
15858;SDS011;8029;52.202;7.308;2022-07-21T05:01:59;4.80;;;4.38;;
15858;SDS011;8029;52.202;7.308;2022-07-21T05:04:26;8.15;;;4.68;;
15858;SDS011;8029;52.202;7.308;2022-07-21T05:06:52;5.07;;;4.57;;
15858;SDS011;8029;52.202;7.308;2022-07-21T05:09:18;19.83;;;4.72;;
15858;SDS011;8029;52.202;7.308;2022-07-21T05:11:44;5.15;;;4.50;;
15858;SDS011;8029;52.202;7.308;2022-07-21T05:14:10;6.70;;;5.30;;
15858;SDS011;8029;52.202;7.308;2022-07-21T05:16:36;6.05;;;5.45;;
15858;SDS011;8029;52.202;7.308;2022-07-21T05:19:02;6.07;;;5.45;;
15858;SDS011;8029;52.202;7.308;2022-07-21T05:21:28;10.02;;;6.43;;
15858;SDS011;8029;52.202;7.308;2022-07-21T05:23:54;6.32;;;5.07;;
15858;SDS011;8029;52.202;7.308;2022-07-21T05:26:21;4.93;;;4.45;;
15858;SDS011;8029;52.202;7.308;2022-07-21T05:28:47;6.47;;;5.50;;
15858;SDS011;8029;52.202;7.308;2022-07-21T05:31:13;5.10;;;4.50;;
15858;SDS011;8029;52.202;7.308;2022-07-21T05:33:39;8.90;;;5.90;;
15858;SDS011;8029;52.202;7.308;2022-07-21T05:36:05;6.63;;;5.55;;
15858;SDS011;8029;52.202;7.308;2022-07-21T05:38:31;6.20;;;5.38;;
15858;SDS011;8029;52.202;7.308;2022-07-21T05:40:58;5.97;;;5.40;;
15858;SDS011;8029;52.202;7.308;2022-07-21T05:43:31;6.30;;;4.97;;
15858;SDS011;8029;52.202;7.308;2022-07-21T05:45:57;5.53;;;4.97;;
15858;SDS011;8029;52.202;7.308;2022-07-21T05:48:23;8.40;;;5.07;;
15858;SDS011;8029;52.202;7.308;2022-07-21T05:50:49;4.97;;;4.45;;
15858;SDS011;8029;52.202;7.308;2022-07-21T05:53:15;8.93;;;5.65;;
15858;SDS011;8029;52.202;7.308;2022-07-21T05:55:41;7.80;;;5.45;;
15858;SDS011;8029;52.202;7.308;2022-07-21T05:58:07;6.82;;;5.65;;
15858;SDS011;8029;52.202;7.308;2022-07-21T06:00:33;4.88;;;4.47;;
15858;SDS011;8029;52.202;7.308;2022-07-21T06:03:00;6.10;;;5.50;;
15858;SDS011;8029;52.202;7.308;2022-07-21T06:05:26;9.10;;;5.38;;
15858;SDS011;8029;52.202;7.308;2022-07-21T06:07:51;4.40;;;4.03;;
15858;SDS011;8029;52.202;7.308;2022-07-21T06:10:17;5.10;;;4.63;;
15858;SDS011;8029;52.202;7.308;2022-07-21T06:12:44;6.23;;;5.63;;
15858;SDS011;8029;52.202;7.308;2022-07-21T06:15:10;7.13;;;6.43;;
15858;SDS011;8029;52.202;7.308;2022-07-21T06:17:40;7.72;;;5.97;;
15858;SDS011;8029;52.202;7.308;2022-07-21T06:20:07;6.72;;;6.03;;
15858;SDS011;8029;52.202;7.308;2022-07-21T06:22:35;7.35;;;6.13;;
15858;SDS011;8029;52.202;7.308;2022-07-21T06:25:02;6.38;;;5.72;;
15858;SDS011;8029;52.202;7.308;2022-07-21T06:27:28;6.93;;;5.82;;
15858;SDS011;8029;52.202;7.308;2022-07-21T06:29:54;6.78;;;6.07;;
15858;SDS011;8029;52.202;7.308;2022-07-21T06:32:22;6.80;;;6.18;;
15858;SDS011;8029;52.202;7.308;2022-07-21T06:34:48;11.45;;;5.90;;
15858;SDS011;8029;52.202;7.308;2022-07-21T06:37:14;7.65;;;6.72;;
15858;SDS011;8029;52.202;7.308;2022-07-21T06:39:40;9.20;;;7.97;;
15858;SDS011;8029;52.202;7.308;2022-07-21T06:42:07;9.10;;;7.80;;
15858;SDS011;8029;52.202;7.308;2022-07-21T06:44:33;8.70;;;7.22;;
15858;SDS011;8029;52.202;7.308;2022-07-21T06:46:59;7.82;;;7.07;;
15858;SDS011;8029;52.202;7.308;2022-07-21T06:49:30;11.38;;;7.25;;
15858;SDS011;8029;52.202;7.308;2022-07-21T06:51:56;7.57;;;6.30;;
15858;SDS011;8029;52.202;7.308;2022-07-21T06:54:22;7.18;;;6.03;;
15858;SDS011;8029;52.202;7.308;2022-07-21T06:56:48;8.70;;;6.15;;
15858;SDS011;8029;52.202;7.308;2022-07-21T06:59:14;7.65;;;6.38;;
15858;SDS011;8029;52.202;7.308;2022-07-21T07:01:40;7.28;;;6.55;;
15858;SDS011;8029;52.202;7.308;2022-07-21T07:04:06;6.45;;;5.85;;
15858;SDS011;8029;52.202;7.308;2022-07-21T07:06:32;7.90;;;6.22;;
15858;SDS011;8029;52.202;7.308;2022-07-21T07:08:58;13.18;;;5.97;;
15858;SDS011;8029;52.202;7.308;2022-07-21T07:11:24;7.10;;;5.75;;
15858;SDS011;8029;52.202;7.308;2022-07-21T07:13:50;5.72;;;5.22;;
15858;SDS011;8029;52.202;7.308;2022-07-21T07:16:16;8.57;;;6.22;;
15858;SDS011;8029;52.202;7.308;2022-07-21T07:18:43;6.57;;;5.80;;
15858;SDS011;8029;52.202;7.308;2022-07-21T07:21:09;5.50;;;5.00;;
15858;SDS011;8029;52.202;7.308;2022-07-21T07:23:35;10.15;;;7.07;;
15858;SDS011;8029;52.202;7.308;2022-07-21T07:26:01;9.30;;;6.82;;
15858;SDS011;8029;52.202;7.308;2022-07-21T07:28:27;8.20;;;6.10;;
15858;SDS011;8029;52.202;7.308;2022-07-21T07:30:53;7.05;;;6.07;;
15858;SDS011;8029;52.202;7.308;2022-07-21T07:33:19;8.38;;;7.07;;
15858;SDS011;8029;52.202;7.308;2022-07-21T07:35:46;6.28;;;5.65;;
15858;SDS011;8029;52.202;7.308;2022-07-21T07:38:13;6.20;;;5.57;;
15858;SDS011;8029;52.202;7.308;2022-07-21T07:40:39;5.68;;;5.18;;
15858;SDS011;8029;52.202;7.308;2022-07-21T07:43:06;7.20;;;6.50;;
15858;SDS011;8029;52.202;7.308;2022-07-21T07:45:32;6.00;;;5.50;;
15858;SDS011;8029;52.202;7.308;2022-07-21T07:47:59;7.65;;;6.90;;
15858;SDS011;8029;52.202;7.308;2022-07-21T07:50:26;12.00;;;8.45;;
15858;SDS011;8029;52.202;7.308;2022-07-21T07:52:53;7.57;;;6.20;;
15858;SDS011;8029;52.202;7.308;2022-07-21T07:55:19;8.10;;;5.45;;
15858;SDS011;8029;52.202;7.308;2022-07-21T07:57:45;6.35;;;5.63;;
15858;SDS011;8029;52.202;7.308;2022-07-21T08:00:15;6.03;;;5.45;;
15858;SDS011;8029;52.202;7.308;2022-07-21T08:02:43;7.65;;;6.57;;
15858;SDS011;8029;52.202;7.308;2022-07-21T08:05:10;7.05;;;6.18;;
15858;SDS011;8029;52.202;7.308;2022-07-21T08:07:37;7.85;;;5.68;;
15858;SDS011;8029;52.202;7.308;2022-07-21T08:10:04;6.90;;;6.20;;
15858;SDS011;8029;52.202;7.308;2022-07-21T08:12:30;7.05;;;5.32;;
15858;SDS011;8029;52.202;7.308;2022-07-21T08:14:57;7.63;;;6.13;;
15858;SDS011;8029;52.202;7.308;2022-07-21T08:17:23;7.72;;;6.95;;
15858;SDS011;8029;52.202;7.308;2022-07-21T08:19:49;6.82;;;6.22;;
15858;SDS011;8029;52.202;7.308;2022-07-21T08:22:15;8.23;;;5.82;;
15858;SDS011;8029;52.202;7.308;2022-07-21T08:24:41;7.80;;;7.03;;
15858;SDS011;8029;52.202;7.308;2022-07-21T08:27:07;6.10;;;5.25;;
15858;SDS011;8029;52.202;7.308;2022-07-21T08:29:33;7.38;;;6.00;;
15858;SDS011;8029;52.202;7.308;2022-07-21T08:31:59;10.20;;;7.50;;
15858;SDS011;8029;52.202;7.308;2022-07-21T08:34:26;7.72;;;7.00;;
15858;SDS011;8029;52.202;7.308;2022-07-21T08:36:52;7.80;;;6.75;;
15858;SDS011;8029;52.202;7.308;2022-07-21T08:39:18;6.38;;;5.78;;
15858;SDS011;8029;52.202;7.308;2022-07-21T08:41:44;9.68;;;7.00;;
15858;SDS011;8029;52.202;7.308;2022-07-21T08:44:11;11.77;;;6.25;;
15858;SDS011;8029;52.202;7.308;2022-07-21T08:46:40;6.18;;;5.57;;
15858;SDS011;8029;52.202;7.308;2022-07-21T08:49:07;6.95;;;5.95;;
15858;SDS011;8029;52.202;7.308;2022-07-21T08:51:34;10.48;;;8.80;;
15858;SDS011;8029;52.202;7.308;2022-07-21T08:54:00;6.93;;;5.22;;
15858;SDS011;8029;52.202;7.308;2022-07-21T08:56:26;7.30;;;6.18;;
15858;SDS011;8029;52.202;7.308;2022-07-21T08:58:52;9.07;;;7.05;;
15858;SDS011;8029;52.202;7.308;2022-07-21T09:01:18;9.98;;;7.45;;
15858;SDS011;8029;52.202;7.308;2022-07-21T09:03:45;8.45;;;6.50;;
15858;SDS011;8029;52.202;7.308;2022-07-21T09:06:14;8.02;;;7.22;;
15858;SDS011;8029;52.202;7.308;2022-07-21T09:08:45;8.35;;;7.35;;
15858;SDS011;8029;52.202;7.308;2022-07-21T09:13:39;6.82;;;6.22;;
15858;SDS011;8029;52.202;7.308;2022-07-21T09:16:06;8.95;;;7.97;;
15858;SDS011;8029;52.202;7.308;2022-07-21T09:18:32;12.05;;;7.88;;
15858;SDS011;8029;52.202;7.308;2022-07-21T09:20:58;10.80;;;8.38;;
15858;SDS011;8029;52.202;7.308;2022-07-21T09:23:25;8.93;;;8.02;;
15858;SDS011;8029;52.202;7.308;2022-07-21T09:25:53;8.95;;;7.70;;
15858;SDS011;8029;52.202;7.308;2022-07-21T09:28:26;10.75;;;8.50;;
15858;SDS011;8029;52.202;7.308;2022-07-21T09:30:57;7.10;;;6.15;;
15858;SDS011;8029;52.202;7.308;2022-07-21T09:33:25;11.57;;;9.27;;
15858;SDS011;8029;52.202;7.308;2022-07-21T09:38:39;12.77;;;10.23;;
15858;SDS011;8029;52.202;7.308;2022-07-21T09:43:42;9.73;;;8.73;;
15858;SDS011;8029;52.202;7.308;2022-07-21T09:46:16;8.73;;;7.50;;
15858;SDS011;8029;52.202;7.308;2022-07-21T09:48:43;7.82;;;7.07;;
15858;SDS011;8029;52.202;7.308;2022-07-21T09:54:09;9.00;;;7.65;;
15858;SDS011;8029;52.202;7.308;2022-07-21T09:56:40;10.48;;;8.00;;
15858;SDS011;8029;52.202;7.308;2022-07-21T09:59:07;11.85;;;8.00;;
15858;SDS011;8029;52.202;7.308;2022-07-21T10:01:33;9.38;;;8.43;;
15858;SDS011;8029;52.202;7.308;2022-07-21T10:04:01;10.55;;;8.13;;
15858;SDS011;8029;52.202;7.308;2022-07-21T10:06:30;8.00;;;6.13;;
15858;SDS011;8029;52.202;7.308;2022-07-21T10:08:56;8.27;;;6.70;;
15858;SDS011;8029;52.202;7.308;2022-07-21T10:11:23;6.50;;;5.85;;
15858;SDS011;8029;52.202;7.308;2022-07-21T10:13:49;7.47;;;6.07;;
15858;SDS011;8029;52.202;7.308;2022-07-21T10:16:15;7.75;;;5.38;;
15858;SDS011;8029;52.202;7.308;2022-07-21T10:18:47;8.70;;;7.20;;
15858;SDS011;8029;52.202;7.308;2022-07-21T10:21:39;11.60;;;4.63;;
15858;SDS011;8029;52.202;7.308;2022-07-21T10:24:09;8.32;;;5.38;;
15858;SDS011;8029;52.202;7.308;2022-07-21T10:26:35;4.75;;;3.55;;
15858;SDS011;8029;52.202;7.308;2022-07-21T10:29:01;6.40;;;4.75;;
15858;SDS011;8029;52.202;7.308;2022-07-21T10:31:27;5.18;;;4.65;;
15858;SDS011;8029;52.202;7.308;2022-07-21T10:33:58;4.50;;;3.92;;
15858;SDS011;8029;52.202;7.308;2022-07-21T10:39:17;4.80;;;3.60;;
15858;SDS011;8029;52.202;7.308;2022-07-21T10:41:43;3.70;;;3.00;;
15858;SDS011;8029;52.202;7.308;2022-07-21T10:47:05;4.55;;;4.15;;
15858;SDS011;8029;52.202;7.308;2022-07-21T10:49:41;8.50;;;4.22;;
15858;SDS011;8029;52.202;7.308;2022-07-21T11:02:41;2.75;;;2.33;;
15858;SDS011;8029;52.202;7.308;2022-07-21T11:05:07;2.53;;;2.33;;
15858;SDS011;8029;52.202;7.308;2022-07-21T11:10:39;4.32;;;2.97;;
15858;SDS011;8029;52.202;7.308;2022-07-21T11:13:05;2.00;;;1.90;;
15858;SDS011;8029;52.202;7.308;2022-07-21T11:18:10;3.67;;;2.92;;
15858;SDS011;8029;52.202;7.308;2022-07-21T11:20:36;4.55;;;2.83;;
15858;SDS011;8029;52.202;7.308;2022-07-21T11:23:02;8.13;;;2.63;;
15858;SDS011;8029;52.202;7.308;2022-07-21T11:25:29;3.70;;;3.00;;
15858;SDS011;8029;52.202;7.308;2022-07-21T11:27:55;4.65;;;2.88;;
15858;SDS011;8029;52.202;7.308;2022-07-21T11:30:21;2.25;;;2.05;;
15858;SDS011;8029;52.202;7.308;2022-07-21T11:32:47;3.25;;;2.78;;
15858;SDS011;8029;52.202;7.308;2022-07-21T11:35:13;5.75;;;2.40;;
15858;SDS011;8029;52.202;7.308;2022-07-21T11:37:41;2.58;;;2.28;;
15858;SDS011;8029;52.202;7.308;2022-07-21T11:40:11;3.95;;;2.50;;
15858;SDS011;8029;52.202;7.308;2022-07-21T11:42:37;3.42;;;2.55;;
15858;SDS011;8029;52.202;7.308;2022-07-21T11:45:04;2.47;;;2.15;;
15858;SDS011;8029;52.202;7.308;2022-07-21T11:47:30;3.58;;;2.90;;
15858;SDS011;8029;52.202;7.308;2022-07-21T11:49:58;2.10;;;2.00;;
15858;SDS011;8029;52.202;7.308;2022-07-21T11:52:28;2.83;;;2.38;;
15858;SDS011;8029;52.202;7.308;2022-07-21T11:54:55;12.75;;;2.53;;
15858;SDS011;8029;52.202;7.308;2022-07-21T11:57:23;4.55;;;3.38;;
15858;SDS011;8029;52.202;7.308;2022-07-21T11:59:50;2.63;;;2.35;;
15858;SDS011;8029;52.202;7.308;2022-07-21T12:02:18;3.05;;;2.58;;
15858;SDS011;8029;52.202;7.308;2022-07-21T12:09:46;10.77;;;2.72;;
15858;SDS011;8029;52.202;7.308;2022-07-21T12:12:12;9.98;;;2.97;;
15858;SDS011;8029;52.202;7.308;2022-07-21T12:14:42;3.00;;;2.70;;
15858;SDS011;8029;52.202;7.308;2022-07-21T12:17:09;2.38;;;2.17;;
15858;SDS011;8029;52.202;7.308;2022-07-21T12:19:35;3.15;;;2.45;;
15858;SDS011;8029;52.202;7.308;2022-07-21T12:22:02;2.15;;;1.95;;
15858;SDS011;8029;52.202;7.308;2022-07-21T12:24:50;1.73;;;1.50;;
15858;SDS011;8029;52.202;7.308;2022-07-21T12:27:15;1.52;;;1.42;;
15858;SDS011;8029;52.202;7.308;2022-07-21T12:29:42;2.10;;;1.80;;
15858;SDS011;8029;52.202;7.308;2022-07-21T12:32:08;5.10;;;2.88;;
15858;SDS011;8029;52.202;7.308;2022-07-21T12:34:47;2.13;;;2.00;;
15858;SDS011;8029;52.202;7.308;2022-07-21T12:37:14;3.58;;;2.30;;
15858;SDS011;8029;52.202;7.308;2022-07-21T12:39:40;11.48;;;2.80;;
15858;SDS011;8029;52.202;7.308;2022-07-21T12:42:29;1.70;;;1.60;;
15858;SDS011;8029;52.202;7.308;2022-07-21T12:44:55;2.55;;;2.35;;
15858;SDS011;8029;52.202;7.308;2022-07-21T12:47:21;1.63;;;1.52;;
15858;SDS011;8029;52.202;7.308;2022-07-21T12:49:55;1.75;;;1.38;;
15858;SDS011;8029;52.202;7.308;2022-07-21T12:52:21;4.10;;;1.98;;
15858;SDS011;8029;52.202;7.308;2022-07-21T12:54:48;1.85;;;1.40;;
15858;SDS011;8029;52.202;7.308;2022-07-21T12:57:14;2.05;;;1.80;;
15858;SDS011;8029;52.202;7.308;2022-07-21T12:59:40;1.23;;;1.10;;
15858;SDS011;8029;52.202;7.308;2022-07-21T13:02:06;1.20;;;1.05;;
15858;SDS011;8029;52.202;7.308;2022-07-21T13:04:32;3.20;;;1.83;;
15858;SDS011;8029;52.202;7.308;2022-07-21T13:06:58;1.45;;;1.35;;
15858;SDS011;8029;52.202;7.308;2022-07-21T13:09:24;1.17;;;1.17;;
15858;SDS011;8029;52.202;7.308;2022-07-21T13:11:50;1.50;;;1.40;;
15858;SDS011;8029;52.202;7.308;2022-07-21T13:14:16;1.38;;;1.27;;
15858;SDS011;8029;52.202;7.308;2022-07-21T13:16:42;3.40;;;2.00;;
15858;SDS011;8029;52.202;7.308;2022-07-21T13:19:08;1.70;;;1.58;;
15858;SDS011;8029;52.202;7.308;2022-07-21T13:21:34;2.28;;;1.45;;
15858;SDS011;8029;52.202;7.308;2022-07-21T13:24:00;2.25;;;1.80;;
15858;SDS011;8029;52.202;7.308;2022-07-21T13:26:26;1.10;;;1.10;;
15858;SDS011;8029;52.202;7.308;2022-07-21T13:28:53;1.52;;;1.40;;
15858;SDS011;8029;52.202;7.308;2022-07-21T13:31:19;1.45;;;1.35;;
15858;SDS011;8029;52.202;7.308;2022-07-21T13:33:46;4.07;;;2.05;;
15858;SDS011;8029;52.202;7.308;2022-07-21T13:36:12;1.88;;;1.75;;
15858;SDS011;8029;52.202;7.308;2022-07-21T13:38:39;1.40;;;1.30;;
15858;SDS011;8029;52.202;7.308;2022-07-21T13:41:05;1.58;;;1.40;;
15858;SDS011;8029;52.202;7.308;2022-07-21T13:43:31;1.23;;;1.13;;
15858;SDS011;8029;52.202;7.308;2022-07-21T13:45:57;1.23;;;1.23;;
15858;SDS011;8029;52.202;7.308;2022-07-21T13:48:24;1.55;;;1.45;;
15858;SDS011;8029;52.202;7.308;2022-07-21T13:50:50;3.17;;;1.77;;
15858;SDS011;8029;52.202;7.308;2022-07-21T13:53:16;6.47;;;2.08;;
15858;SDS011;8029;52.202;7.308;2022-07-21T13:55:42;2.10;;;1.90;;
15858;SDS011;8029;52.202;7.308;2022-07-21T13:58:09;1.58;;;1.48;;
15858;SDS011;8029;52.202;7.308;2022-07-21T14:00:35;2.10;;;1.88;;
15858;SDS011;8029;52.202;7.308;2022-07-21T14:03:01;2.17;;;1.98;;
15858;SDS011;8029;52.202;7.308;2022-07-21T14:05:27;1.90;;;1.80;;
15858;SDS011;8029;52.202;7.308;2022-07-21T14:07:53;1.50;;;1.40;;
15858;SDS011;8029;52.202;7.308;2022-07-21T14:10:19;3.78;;;2.05;;
15858;SDS011;8029;52.202;7.308;2022-07-21T14:12:45;2.47;;;1.48;;
15858;SDS011;8029;52.202;7.308;2022-07-21T14:15:11;2.97;;;2.08;;
15858;SDS011;8029;52.202;7.308;2022-07-21T14:17:37;1.45;;;1.35;;
15858;SDS011;8029;52.202;7.308;2022-07-21T14:20:04;3.03;;;1.92;;
15858;SDS011;8029;52.202;7.308;2022-07-21T14:22:30;1.90;;;1.80;;
15858;SDS011;8029;52.202;7.308;2022-07-21T14:24:56;1.70;;;1.60;;
15858;SDS011;8029;52.202;7.308;2022-07-21T14:27:40;2.55;;;1.83;;
15858;SDS011;8029;52.202;7.308;2022-07-21T14:30:07;2.30;;;1.63;;
15858;SDS011;8029;52.202;7.308;2022-07-21T14:32:33;2.53;;;2.33;;
15858;SDS011;8029;52.202;7.308;2022-07-21T14:34:59;2.40;;;1.55;;
15858;SDS011;8029;52.202;7.308;2022-07-21T14:37:25;2.17;;;1.98;;
15858;SDS011;8029;52.202;7.308;2022-07-21T14:39:51;2.55;;;2.22;;
15858;SDS011;8029;52.202;7.308;2022-07-21T14:42:17;3.03;;;2.72;;
15858;SDS011;8029;52.202;7.308;2022-07-21T14:44:43;2.00;;;1.90;;
15858;SDS011;8029;52.202;7.308;2022-07-21T14:47:10;2.13;;;1.92;;
15858;SDS011;8029;52.202;7.308;2022-07-21T14:49:37;1.75;;;1.65;;
15858;SDS011;8029;52.202;7.308;2022-07-21T14:52:03;3.42;;;2.35;;
15858;SDS011;8029;52.202;7.308;2022-07-21T14:54:30;4.35;;;2.00;;
15858;SDS011;8029;52.202;7.308;2022-07-21T14:56:56;1.60;;;1.50;;
15858;SDS011;8029;52.202;7.308;2022-07-21T14:59:22;2.55;;;2.35;;
15858;SDS011;8029;52.202;7.308;2022-07-21T15:01:48;2.63;;;2.40;;
15858;SDS011;8029;52.202;7.308;2022-07-21T15:04:14;2.50;;;2.30;;
15858;SDS011;8029;52.202;7.308;2022-07-21T15:06:40;3.17;;;2.13;;
15858;SDS011;8029;52.202;7.308;2022-07-21T15:09:08;3.33;;;2.85;;
15858;SDS011;8029;52.202;7.308;2022-07-21T15:11:34;2.42;;;1.95;;
15858;SDS011;8029;52.202;7.308;2022-07-21T15:14:00;23.85;;;2.60;;
15858;SDS011;8029;52.202;7.308;2022-07-21T15:16:26;2.25;;;2.05;;
15858;SDS011;8029;52.202;7.308;2022-07-21T15:18:52;2.67;;;2.47;;
15858;SDS011;8029;52.202;7.308;2022-07-21T15:21:18;2.55;;;1.92;;
15858;SDS011;8029;52.202;7.308;2022-07-21T15:23:44;2.30;;;2.10;;
15858;SDS011;8029;52.202;7.308;2022-07-21T15:26:10;2.30;;;2.10;;
15858;SDS011;8029;52.202;7.308;2022-07-21T15:28:36;2.67;;;2.47;;
15858;SDS011;8029;52.202;7.308;2022-07-21T15:31:02;2.78;;;2.55;;
15858;SDS011;8029;52.202;7.308;2022-07-21T15:33:28;17.50;;;4.60;;
15858;SDS011;8029;52.202;7.308;2022-07-21T15:35:54;2.90;;;2.65;;